Time;durP1;ratioP1;P1;durP2;ratioP2;P2;SDS_P1;SDS_P2;PMS_P1;PMS_P2;Temp;Humidity;BMP_temperature;BMP_pressure;BME280_temperature;BME280_humidity;BME280_pressure;Samples;Min_cycle;Max_cycle;Signal;HPM_P1;HPM_P2
2023/06/08 00:02:28;;;;;;;;;;;;;;;13.88;100.00;97521.88;18569498;32;19961;-56
2023/06/08 00:12:31;;;;;;;;;;;;;;;13.87;100.00;97524.87;18554512;32;19964;-53
2023/06/08 00:22:36;;;;;;;;;;;;;;;13.88;100.00;97516.44;18567558;32;20004;-55
2023/06/08 00:32:40;;;;;;;;;;;;;;;13.75;100.00;97513.66;18567906;32;20016;-56
2023/06/08 00:42:42;;;;;;;;;;;;;;;13.63;100.00;97506.72;18565625;32;19965;-57
2023/06/08 00:52:45;;;;;;;;;;;;;;;13.59;100.00;97502.19;18566204;32;19967;-54
2023/06/08 01:02:48;;;;;;;;;;;;;;;13.58;100.00;97490.53;18551330;32;19960;-56
2023/06/08 01:12:56;;;;;;;;;;;;;;;13.56;100.00;97485.34;18564631;31;19990;-55
2023/06/08 01:22:59;;;;;;;;;;;;;;;13.52;100.00;97486.25;18564291;32;20284;-55
2023/06/08 01:33:02;;;;;;;;;;;;;;;13.49;100.00;97474.06;18563574;32;20000;-55
2023/06/08 01:43:08;;;;;;;;;;;;;;;13.45;100.00;97481.19;18562754;32;20290;-55
2023/06/08 01:53:11;;;;;;;;;;;;;;;13.37;100.00;97481.84;18562180;32;19971;-56
2023/06/08 02:03:14;;;;;;;;;;;;;;;13.27;100.00;97485.47;18561581;32;19960;-55
2023/06/08 02:13:17;;;;;;;;;;;;;;;13.21;100.00;97473.09;18561444;32;19952;-56
2023/06/08 02:23:20;;;;;;;;;;;;;;;13.25;100.00;97473.28;18561282;32;19991;-57
2023/06/08 02:33:24;;;;;;;;;;;;;;;13.32;100.00;97476.44;18560808;32;19964;-56
2023/06/08 02:43:27;;;;;;;;;;;;;;;13.41;100.00;97482.06;18560777;32;19982;-55
2023/06/08 02:53:29;;;;;;;;;;;;;;;13.48;100.00;97483.31;18560333;32;19949;-55
2023/06/08 03:03:33;;;;;;;;;;;;;;;13.54;100.00;97471.28;18559927;32;19949;-55
2023/06/08 03:13:36;;;;;;;;;;;;;;;13.63;100.00;97462.47;18570338;32;20351;-55
2023/06/08 03:23:38;;;;;;;;;;;;;;;13.69;100.00;97491.16;18571725;32;19952;-56
2023/06/08 03:33:41;;;;;;;;;;;;;;;13.69;100.00;97478.41;18557070;32;19959;-54
2023/06/08 03:43:44;;;;;;;;;;;;;;;13.83;100.00;97466.78;18570048;32;20345;-56
2023/06/08 03:53:48;;;;;;;;;;;;;;;13.98;100.00;97457.59;18569590;31;19944;-55
2023/06/08 04:03:51;;;;;;;;;;;;;;;14.04;100.00;97473.47;18569170;32;19956;-55
2023/06/08 04:13:54;;;;;;;;;;;;;;;14.15;100.00;97501.31;18541253;32;19956;-56
2023/06/08 04:23:56;;;;;;;;;;;;;;;14.23;100.00;97497.91;18567564;32;19949;-56
2023/06/08 04:33:59;;;;;;;;;;;;;;;14.36;100.00;97496.34;18567178;31;19985;-55
2023/06/08 04:44:02;;;;;;;;;;;;;;;14.44;100.00;97489.38;18566785;32;19964;-56
2023/06/08 04:54:05;;;;;;;;;;;;;;;14.50;100.00;97507.25;18566024;32;20008;-55
2023/06/08 05:04:10;;;;;;;;;;;;;;;14.57;100.00;97515.81;18565486;32;19957;-56
2023/06/08 05:14:16;;;;;;;;;;;;;;;14.64;100.00;97520.91;18564910;32;19957;-56
2023/06/08 05:24:18;;;;;;;;;;;;;;;14.72;100.00;97516.69;18564232;32;19971;-55
2023/06/08 05:34:22;;;;;;;;;;;;;;;14.81;100.00;97511.34;18548504;32;20001;-55
2023/06/08 05:44:27;;;;;;;;;;;;;;;14.98;100.00;97519.72;18562747;31;19994;-56
2023/06/08 05:54:30;;;;;;;;;;;;;;;15.25;100.00;97531.69;18562612;32;20332;-56
2023/06/08 06:04:36;;;;;;;;;;;;;;;15.55;100.00;97535.72;18562099;32;20285;-56
2023/06/08 06:14:41;;;;;;;;;;;;;;;15.96;100.00;97534.00;18561732;32;20016;-57
2023/06/08 06:24:45;;;;;;;;;;;;;;;16.09;100.00;97535.09;18546746;32;19997;-57
2023/06/08 06:35:01;;;;;;;;;;;;;;;16.34;100.00;97535.56;18560856;31;20313;-56
2023/06/08 06:45:11;;;;;;;;;;;;;;;16.62;100.00;97543.59;18568601;32;20026;-57
2023/06/08 06:55:21;;;;;;;;;;;;;;;16.68;100.00;97537.69;18573716;32;19972;-56
2023/06/08 07:05:24;;;;;;;;;;;;;;;17.31;100.00;97534.94;18573383;32;20134;-57
2023/06/08 07:15:28;;;;;;;;;;;;;;;18.08;100.00;97540.03;18558179;32;19994;-57
2023/06/08 07:25:31;;;;;;;;;;;;;;;18.72;100.00;97541.19;18571373;32;19995;-57
2023/06/08 07:35:54;;;;;;;;;;;;;;;19.05;100.00;97529.66;18570585;32;19957;-57
2023/06/08 07:46:00;;;;;;;;;;;;;;;19.69;100.00;97534.16;18570153;32;19989;-58
2023/06/08 07:56:05;;;;;;;;;;;;;;;20.30;100.00;97532.91;18569245;32;19992;-58
2023/06/08 08:06:08;;;;;;;;;;;;;;;20.76;98.44;97527.44;18569145;32;19981;-58
2023/06/08 08:16:14;;;;;;;;;;;;;;;21.14;86.29;97524.41;18569262;32;20363;-58
2023/06/08 08:26:17;;;;;;;;;;;;;;;21.44;85.36;97528.84;18567529;31;19949;-58
2023/06/08 08:36:23;;;;;;;;;;;;;;;21.75;83.37;97522.75;18553105;31;19979;-58
2023/06/08 08:46:33;;;;;;;;;;;;;;;22.09;81.23;97519.78;18552934;32;19964;-58
2023/06/08 08:56:38;;;;;;;;;;;;;;;22.55;78.23;97514.00;18566091;32;19953;-58
2023/06/08 09:06:47;;;;;;;;;;;;;;;23.08;73.14;97514.56;18564582;32;19967;-58
2023/06/08 09:16:53;;;;;;;;;;;;;;;23.27;69.80;97505.59;18537508;32;19975;-58
2023/06/08 09:27:00;;;;;;;;;;;;;;;23.38;67.57;97502.25;18564125;32;19956;-58
2023/06/08 09:37:06;;;;;;;;;;;;;;;23.73;64.99;97495.97;18563334;32;19989;-58
2023/06/08 09:47:21;;;;;;;;;;;;;;;24.11;61.70;97488.88;18563218;32;20003;-58
2023/06/08 09:57:28;;;;;;;;;;;;;;;24.58;65.28;97481.47;18562567;32;19972;-58
2023/06/08 10:07:35;;;;;;;;;;;;;;;24.87;57.91;97477.25;18562283;32;20387;-58
2023/06/08 10:17:40;;;;;;;;;;;;;;;25.19;53.85;97476.97;18561246;31;19948;-58
2023/06/08 10:27:54;;;;;;;;;;;;;;;25.53;51.28;97471.53;18561300;32;19981;-58
2023/06/08 10:38:07;;;;;;;;;;;;;;;26.04;52.13;97464.72;18546669;31;19948;-58
2023/06/08 10:48:14;;;;;;;;;;;;;;;26.51;48.44;97459.69;18546415;32;19996;-58
2023/06/08 10:58:19;;;;;;;;;;;;;;;26.87;48.42;97429.50;18560219;32;19964;-59
2023/06/08 11:08:24;;;;;;;;;;;;;;;26.97;41.14;97419.66;18560011;32;20275;-58
2023/06/08 11:18:30;;;;;;;;;;;;;;;27.59;44.79;97416.13;18544996;32;19960;-58
2023/06/08 11:28:33;;;;;;;;;;;;;;;27.92;41.89;97413.47;18562370;32;19956;-58
2023/06/08 11:38:36;;;;;;;;;;;;;;;28.31;42.23;97404.44;18570931;31;20373;-58
2023/06/08 11:48:40;;;;;;;;;;;;;;;28.52;39.07;97398.12;18570269;32;19976;-58
2023/06/08 11:58:46;;;;;;;;;;;;;;;29.03;41.36;97390.56;18569577;32;19965;-58
2023/06/08 12:08:53;;;;;;;;;;;;;;;29.35;38.50;97382.16;18568719;31;19952;-57
2023/06/08 12:18:56;;;;;;;;;;;;;;;29.62;38.17;97375.31;18568438;32;20001;-58
2023/06/08 12:29:04;;;;;;;;;;;;;;;29.97;38.99;97357.66;18553791;32;19967;-58
2023/06/08 12:39:08;;;;;;;;;;;;;;;30.50;36.34;97369.66;18552710;32;19992;-55
2023/06/08 12:49:12;;;;;;;;;;;;;;;31.05;33.41;97353.25;18552425;32;19996;-56
2023/06/08 12:59:15;;;;;;;;;;;;;;;31.30;36.33;97346.59;18565963;32;20258;-55
2023/06/08 13:09:19;;;;;;;;;;;;;;;30.92;34.51;97330.63;18565473;32;19948;-56
2023/06/08 13:19:22;;;;;;;;;;;;;;;31.42;32.77;97335.69;18564914;32;19985;-55
2023/06/08 13:29:25;;;;;;;;;;;;;;;31.72;33.91;97317.34;18563955;32;19995;-55
2023/06/08 13:39:29;;;;;;;;;;;;;;;32.69;33.73;97306.66;18548931;32;19964;-55
2023/06/08 13:49:33;;;;;;;;;;;;;;;32.91;32.03;97309.09;18548702;32;20008;-55
2023/06/08 13:59:36;;;;;;;;;;;;;;;33.18;32.91;97308.16;18562119;32;19993;-55
2023/06/08 14:09:40;;;;;;;;;;;;;;;33.78;31.46;97296.94;18562009;32;20012;-56
2023/06/08 14:19:45;;;;;;;;;;;;;;;34.26;30.98;97303.03;18561379;32;20261;-56
2023/06/08 14:29:48;;;;;;;;;;;;;;;34.74;31.20;97290.22;18547069;32;20003;-56
2023/06/08 14:39:52;;;;;;;;;;;;;;;32.84;33.46;97281.25;18560465;32;19993;-56
2023/06/08 14:49:56;;;;;;;;;;;;;;;31.31;38.84;97269.97;18546344;32;19957;-56
2023/06/08 15:00:00;;;;;;;;;;;;;;;30.45;39.83;97252.97;18545650;32;19949;-51
2023/06/08 15:10:07;;;;;;;;;;;;;;;29.20;46.67;97266.44;18571447;32;19952;-55
2023/06/08 15:20:14;;;;;;;;;;;;;;;28.60;54.17;97259.84;18572157;32;19952;-56
2023/06/08 15:30:21;;;;;;;;;;;;;;;28.38;57.84;97260.69;18571290;32;20370;-56
2023/06/08 15:40:24;;;;;;;;;;;;;;;28.58;59.32;97263.03;18570487;32;19961;-55
2023/06/08 15:50:27;;;;;;;;;;;;;;;28.54;44.95;97251.91;18569854;31;20382;-55
2023/06/08 16:00:30;;;;;;;;;;;;;;;28.40;43.38;97236.03;18569485;32;19964;-54
2023/06/08 16:10:33;;;;;;;;;;;;;;;27.90;44.33;97236.84;18569089;32;19982;-54
2023/06/08 16:20:39;;;;;;;;;;;;;;;27.28;52.11;97215.66;18554644;32;19998;-54
2023/06/08 16:30:42;;;;;;;;;;;;;;;27.05;51.69;97208.47;18567825;32;19949;-54
2023/06/08 16:40:45;;;;;;;;;;;;;;;27.13;49.45;97205.72;18566948;32;20040;-55
2023/06/08 16:50:48;;;;;;;;;;;;;;;27.51;45.26;97203.47;18566602;32;19998;-55
2023/06/08 17:00:52;;;;;;;;;;;;;;;27.13;46.28;97208.50;18565896;32;20333;-55
2023/06/08 17:10:55;;;;;;;;;;;;;;;26.66;47.41;97194.41;18551435;32;20015;-55
2023/06/08 17:21:00;;;;;;;;;;;;;;;26.28;48.97;97194.56;18564733;32;19961;-55
2023/06/08 17:31:03;;;;;;;;;;;;;;;26.16;51.14;97194.88;18563563;32;19948;-55
2023/06/08 17:41:07;;;;;;;;;;;;;;;25.68;57.01;97190.94;18535953;32;20276;-55
2023/06/08 17:51:16;;;;;;;;;;;;;;;25.19;60.35;97192.81;18549326;32;19976;-55
2023/06/08 18:01:22;;;;;;;;;;;;;;;25.03;65.57;97198.53;18548197;32;20281;-55
2023/06/08 18:11:26;;;;;;;;;;;;;;;27.41;58.35;97207.00;18562197;32;20018;-56
2023/06/08 18:21:33;;;;;;;;;;;;;;;27.93;52.72;97201.91;18548197;32;19961;-55
2023/06/08 18:31:41;;;;;;;;;;;;;;;24.90;64.39;97207.47;18535119;32;19975;-55
2023/06/08 18:41:45;;;;;;;;;;;;;;;23.34;75.24;97204.25;18569893;32;20011;-55
2023/06/08 18:51:50;;;;;;;;;;;;;;;22.42;82.05;97208.28;18573972;32;19968;-55
2023/06/08 19:01:53;;;;;;;;;;;;;;;21.85;90.28;97209.69;18573166;32;20367;-54
2023/06/08 19:11:58;;;;;;;;;;;;;;;21.43;97.78;97219.19;18572671;32;19957;-57
2023/06/08 19:22:01;;;;;;;;;;;;;;;20.99;100.00;97222.72;18572087;32;19981;-55
2023/06/08 19:32:06;;;;;;;;;;;;;;;20.48;100.00;97226.72;18571293;32;19974;-56
2023/06/08 19:42:10;;;;;;;;;;;;;;;19.91;100.00;97224.94;18570568;32;19952;-56
2023/06/08 19:52:13;;;;;;;;;;;;;;;19.38;100.00;97230.22;18569674;32;19975;-55
2023/06/08 20:02:16;;;;;;;;;;;;;;;18.92;100.00;97252.88;18556064;32;19979;-54
2023/06/08 20:12:19;;;;;;;;;;;;;;;18.52;100.00;97267.00;18569207;32;20267;-56
2023/06/08 20:22:22;;;;;;;;;;;;;;;18.17;100.00;97272.69;18568635;31;19981;-56
2023/06/08 20:32:25;;;;;;;;;;;;;;;17.81;100.00;97282.13;18554130;32;20047;-56
2023/06/08 20:42:29;;;;;;;;;;;;;;;17.52;100.00;97275.44;18566849;32;19957;-57
2023/06/08 20:52:32;;;;;;;;;;;;;;;17.28;100.00;97284.19;18566562;32;19997;-56
2023/06/08 21:02:34;;;;;;;;;;;;;;;17.12;100.00;97286.59;18566087;32;20004;-55
2023/06/08 21:12:38;;;;;;;;;;;;;;;16.92;100.00;97299.78;18565230;32;19952;-56
2023/06/08 21:22:44;;;;;;;;;;;;;;;16.75;100.00;97303.25;18550674;32;20377;-56
2023/06/08 21:32:47;;;;;;;;;;;;;;;16.57;100.00;97302.44;18550295;32;19957;-55
2023/06/08 21:42:50;;;;;;;;;;;;;;;16.42;100.00;97295.50;18563200;32;19979;-55
2023/06/08 21:52:53;;;;;;;;;;;;;;;16.26;100.00;97297.84;18563101;32;19952;-56
2023/06/08 22:02:58;;;;;;;;;;;;;;;16.13;100.00;97301.50;18562906;32;19952;-55
2023/06/08 22:13:02;;;;;;;;;;;;;;;16.06;100.00;97299.25;18561392;31;19952;-55
2023/06/08 22:23:05;;;;;;;;;;;;;;;15.95;100.00;97303.37;18547187;32;19968;-54
2023/06/08 22:33:08;;;;;;;;;;;;;;;15.83;100.00;97305.88;18561115;32;19949;-54
2023/06/08 22:43:11;;;;;;;;;;;;;;;15.75;100.00;97297.28;18560572;32;19964;-54
2023/06/08 22:53:21;;;;;;;;;;;;;;;15.74;100.00;97305.78;18560422;32;19953;-56
2023/06/08 23:03:24;;;;;;;;;;;;;;;15.65;100.00;97315.84;18560348;32;19964;-55
2023/06/08 23:13:26;;;;;;;;;;;;;;;15.65;100.00;97310.37;18559918;32;20269;-56
2023/06/08 23:23:32;;;;;;;;;;;;;;;15.63;100.00;97318.87;18561228;32;20341;-57
2023/06/08 23:33:35;;;;;;;;;;;;;;;15.48;100.00;97309.16;18571695;32;19975;-55
2023/06/08 23:43:38;;;;;;;;;;;;;;;15.30;100.00;97310.97;18570791;32;20293;-56
2023/06/08 23:53:41;;;;;;;;;;;;;;;15.07;100.00;97304.69;18570401;32;19953;-56
